createdAt,value
2022-10-03T00:00:11.741Z,0.90
2022-10-03T00:03:29.291Z,1.20
2022-10-03T00:06:27.639Z,1.25
2022-10-03T00:09:27.186Z,1.15
2022-10-03T00:12:19.549Z,0.75
2022-10-03T00:15:12.001Z,0.55
2022-10-03T00:17:59.469Z,0.80
2022-10-03T00:21:08.332Z,0.55
2022-10-03T00:23:55.492Z,0.30
2022-10-03T00:27:00.358Z,0.95
2022-10-03T00:29:39.533Z,0.88
2022-10-03T00:32:53.513Z,0.60
2022-10-03T00:36:03.094Z,0.40
2022-10-03T00:39:09.582Z,0.68
2022-10-03T00:42:07.305Z,0.82
2022-10-03T00:45:12.061Z,0.93
2022-10-03T00:48:32.541Z,0.82
2022-10-03T00:51:09.569Z,1.17
2022-10-03T00:54:17.371Z,1.00
2022-10-03T00:56:58.661Z,0.65
2022-10-03T01:00:06.921Z,0.93
2022-10-03T01:02:40.351Z,1.33
2022-10-03T01:05:46.951Z,1.80
2022-10-03T01:08:45.199Z,1.15
2022-10-03T01:11:43.188Z,1.38
2022-10-03T01:15:07.138Z,1.40
2022-10-03T01:18:21.693Z,1.67
2022-10-03T01:21:07.262Z,1.75
2022-10-03T01:23:53.019Z,1.50
2022-10-03T01:26:57.330Z,1.75
2022-10-03T01:29:52.243Z,1.70
2022-10-03T01:32:47.514Z,1.27
2022-10-03T01:35:24.317Z,1.48
2022-10-03T01:38:22.362Z,1.40
2022-10-03T01:41:35.991Z,1.67
2022-10-03T01:44:12.920Z,1.55
2022-10-03T01:47:08.787Z,1.25
2022-10-03T01:50:00.638Z,1.45
2022-10-03T01:53:06.873Z,1.33
2022-10-03T01:55:56.866Z,1.77
2022-10-03T01:59:07.780Z,2.22
2022-10-03T02:01:51.714Z,0.73
2022-10-03T02:04:34.273Z,1.00
2022-10-03T02:07:26.449Z,1.08
2022-10-03T02:10:24.695Z,0.73
2022-10-03T02:13:17.370Z,0.63
2022-10-03T02:16:05.703Z,0.55
2022-10-03T02:18:58.679Z,0.40
2022-10-03T02:21:32.750Z,1.02
2022-10-03T02:24:15.435Z,0.73
2022-10-03T02:27:16.668Z,0.73
2022-10-03T02:30:37.234Z,0.50
2022-10-03T02:33:16.002Z,0.65
2022-10-03T02:36:32.327Z,2.00
2022-10-03T02:39:36.801Z,0.68
2022-10-03T02:42:59.924Z,0.43
2022-10-03T02:45:36.615Z,0.57
2022-10-03T02:48:31.838Z,0.22
2022-10-03T02:51:37.253Z,0.25
2022-10-03T02:54:52.380Z,0.68
2022-10-03T02:58:14.444Z,0.55
2022-10-03T03:01:18.744Z,1.40
2022-10-03T03:04:12.798Z,0.50
2022-10-03T03:07:16.753Z,0.25
2022-10-03T03:10:25.234Z,0.25
2022-10-03T03:13:09.757Z,0.20
2022-10-03T03:16:14.996Z,0.10
2022-10-03T03:19:25.625Z,0.15
2022-10-03T03:22:32.310Z,0.40
2022-10-03T03:25:38.542Z,0.25
2022-10-03T03:28:26.635Z,0.32
2022-10-03T03:31:13.341Z,0.50
2022-10-03T03:34:34.902Z,0.25
2022-10-03T03:37:36.594Z,0.10
2022-10-03T03:40:35.647Z,0.13
2022-10-03T03:46:04.449Z,0.50
2022-10-03T03:49:16.558Z,0.10
2022-10-03T03:52:31.456Z,0.17
2022-10-03T03:55:06.334Z,0.10
2022-10-03T03:57:48.433Z,0.28
2022-10-03T04:00:38.815Z,0.20
2022-10-03T04:03:54.288Z,0.10
2022-10-03T04:06:40.235Z,0.10
2022-10-03T04:09:43.675Z,0.10
2022-10-03T04:12:52.538Z,0.30
2022-10-03T04:15:47.399Z,0.32
2022-10-03T04:19:08.437Z,0.20
2022-10-03T04:22:13.306Z,0.22
2022-10-03T04:25:18.112Z,0.20
2022-10-03T04:28:34.408Z,0.25
2022-10-03T04:31:30.723Z,0.52
2022-10-03T04:34:42.682Z,0.20
2022-10-03T04:37:19.353Z,0.38
2022-10-03T04:40:22.086Z,0.40
2022-10-03T04:43:10.754Z,0.30
2022-10-03T04:46:06.235Z,0.50
2022-10-03T04:48:52.139Z,0.10
2022-10-03T04:52:09.109Z,0.63
2022-10-03T04:55:24.708Z,0.60
2022-10-03T04:58:16.682Z,0.43
2022-10-03T05:01:18.768Z,0.20
2022-10-03T05:04:34.961Z,0.20
2022-10-03T05:07:16.342Z,0.10
2022-10-03T05:10:15.401Z,0.40
2022-10-03T05:15:45.109Z,0.30
2022-10-03T05:18:49.270Z,0.70
2022-10-03T05:21:31.986Z,0.52
2022-10-03T05:24:22.646Z,0.68
2022-10-03T05:27:20.973Z,0.55
2022-10-03T05:30:24.480Z,0.80
2022-10-03T05:33:16.967Z,0.57
2022-10-03T05:36:24.422Z,0.45
2022-10-03T05:39:53.785Z,0.40
2022-10-03T05:42:55.512Z,0.70
2022-10-03T05:45:49.045Z,0.75
2022-10-03T05:48:56.387Z,0.75
2022-10-03T05:51:40.317Z,0.63
2022-10-03T05:54:50.561Z,0.45
2022-10-03T05:57:41.430Z,0.45
2022-10-03T06:00:22.755Z,0.73
2022-10-03T06:03:23.381Z,0.45
2022-10-03T06:06:20.873Z,0.40
2022-10-03T06:09:24.409Z,0.20
2022-10-03T06:12:10.074Z,0.20
2022-10-03T06:14:58.037Z,1.20
2022-10-03T06:18:08.454Z,0.55
2022-10-03T06:21:32.468Z,0.30
2022-10-03T06:24:14.644Z,0.30
2022-10-03T06:26:59.502Z,0.20
2022-10-03T06:30:11.958Z,0.25
2022-10-03T06:33:10.924Z,0.20
2022-10-03T06:36:21.266Z,0.50
2022-10-03T06:39:28.397Z,0.50
2022-10-03T06:42:41.585Z,0.75
2022-10-03T06:46:09.195Z,0.30
2022-10-03T06:49:32.690Z,0.22
2022-10-03T06:52:14.793Z,0.20
2022-10-03T06:55:04.555Z,0.50
2022-10-03T06:58:17.988Z,0.50
2022-10-03T07:01:05.370Z,0.38
2022-10-03T07:04:29.473Z,0.50
2022-10-03T07:07:52.692Z,0.47
2022-10-03T07:10:37.886Z,0.50
2022-10-03T07:14:09.121Z,0.90
2022-10-03T07:17:11.806Z,1.08
2022-10-03T07:20:28.735Z,0.40
2022-10-03T07:23:39.588Z,0.60
2022-10-03T07:26:45.071Z,0.70
2022-10-03T07:29:28.338Z,1.23
2022-10-03T07:32:10.710Z,1.08
2022-10-03T07:35:01.097Z,0.65
2022-10-03T07:38:02.414Z,0.57
2022-10-03T07:41:11.976Z,0.10
2022-10-03T07:44:07.790Z,0.80
2022-10-03T07:47:27.609Z,0.65
2022-10-03T07:50:25.946Z,0.55
2022-10-03T07:54:01.840Z,0.50
2022-10-03T07:56:57.425Z,1.02
2022-10-03T08:00:15.685Z,0.90
2022-10-03T08:03:41.314Z,0.57
2022-10-03T08:06:43.636Z,0.55
2022-10-03T08:09:50.575Z,0.40
2022-10-03T08:12:40.456Z,0.75
2022-10-03T08:16:14.292Z,0.82
2022-10-03T08:19:27.423Z,0.73
2022-10-03T08:22:16.074Z,0.50
2022-10-03T08:25:29.765Z,0.90
2022-10-03T08:28:18.252Z,0.50
2022-10-03T08:31:19.164Z,0.37
2022-10-03T08:34:44.070Z,0.30
2022-10-03T08:37:35.666Z,0.35
2022-10-03T08:40:21.320Z,0.13
2022-10-03T08:43:23.194Z,0.17
2022-10-03T08:46:15.287Z,0.63
2022-10-03T08:49:06.909Z,0.20
2022-10-03T08:51:56.617Z,0.60
2022-10-03T08:54:42.767Z,0.43
2022-10-03T08:58:03.111Z,0.30
2022-10-03T09:01:13.340Z,0.30
2022-10-03T09:03:58.700Z,0.50
2022-10-03T09:14:42.955Z,0.30
2022-10-03T09:18:05.303Z,0.30
2022-10-03T09:21:13.332Z,0.28
2022-10-03T09:23:59.478Z,0.32
2022-10-03T09:27:02.709Z,0.40
2022-10-03T09:30:15.986Z,0.43
2022-10-03T09:33:08.014Z,0.10
2022-10-03T09:35:50.432Z,0.30
2022-10-03T09:38:51.259Z,0.40
2022-10-03T09:41:49.387Z,0.20
2022-10-03T09:44:19.714Z,0.13
2022-10-03T09:47:27.916Z,0.45
2022-10-03T09:50:21.214Z,0.30
2022-10-03T09:53:30.122Z,0.30
2022-10-03T09:56:34.702Z,0.30
2022-10-03T09:59:12.155Z,0.32
2022-10-03T10:01:54.090Z,0.10
2022-10-03T10:04:56.157Z,0.25
2022-10-03T10:07:43.286Z,0.30
2022-10-03T10:10:38.900Z,0.20
2022-10-03T10:13:12.200Z,0.10
2022-10-03T10:15:48.652Z,0.17
2022-10-03T10:18:50.621Z,0.40
2022-10-03T10:21:45.541Z,0.43
2022-10-03T10:24:50.815Z,0.40
2022-10-03T10:27:42.326Z,0.20
2022-10-03T10:31:03.349Z,0.10
2022-10-03T10:34:22.768Z,0.20
2022-10-03T10:39:58.029Z,0.10
2022-10-03T10:43:15.838Z,0.30
2022-10-03T10:46:31.070Z,0.13
2022-10-03T10:49:57.168Z,0.13
2022-10-03T10:53:00.276Z,0.20
2022-10-03T10:55:59.929Z,0.30
2022-10-03T10:58:53.302Z,0.20
2022-10-03T11:02:15.216Z,0.50
2022-10-03T11:05:39.615Z,0.40
2022-10-03T11:09:12.754Z,0.30
2022-10-03T11:12:23.943Z,0.25
2022-10-03T11:15:38.129Z,0.20
2022-10-03T11:18:32.681Z,0.73
2022-10-03T11:21:00.196Z,0.50
2022-10-03T11:24:09.677Z,0.10
2022-10-03T11:27:35.899Z,0.15
2022-10-03T11:30:42.933Z,0.47
2022-10-03T11:34:04.429Z,0.13
2022-10-03T11:37:06.052Z,0.10
2022-10-03T11:39:39.460Z,0.10
2022-10-03T11:43:34.468Z,0.50
2022-10-03T11:46:57.190Z,0.25
2022-10-03T11:49:58.010Z,0.43
2022-10-03T11:53:03.501Z,0.08
2022-10-03T11:55:42.190Z,0.20
2022-10-03T11:58:34.110Z,0.43
2022-10-03T12:01:04.607Z,0.40
2022-10-03T12:03:44.335Z,0.17
2022-10-03T12:06:58.593Z,0.03
2022-10-03T12:10:04.679Z,0.10
2022-10-03T12:12:46.128Z,0.25
2022-10-03T12:15:38.330Z,0.03
2022-10-03T12:18:18.139Z,0.20
2022-10-03T12:21:07.594Z,0.50
2022-10-03T12:23:35.642Z,0.20
2022-10-03T12:26:04.926Z,0.50
2022-10-03T12:31:35.875Z,0.10
2022-10-03T12:34:12.572Z,0.40
2022-10-03T12:36:52.057Z,0.08
2022-10-03T12:39:44.884Z,0.10
2022-10-03T12:43:09.552Z,0.20
2022-10-03T12:45:59.129Z,0.32
2022-10-03T12:48:55.666Z,0.30
2022-10-03T12:51:42.440Z,0.30
2022-10-03T12:54:35.018Z,0.10
2022-10-03T12:57:47.718Z,0.10
2022-10-03T13:00:47.486Z,0.13
2022-10-03T13:03:31.043Z,0.10
2022-10-03T13:07:01.611Z,0.52
2022-10-03T13:09:33.021Z,0.40
2022-10-03T13:12:10.626Z,0.30
2022-10-03T13:14:58.515Z,0.10
2022-10-03T13:17:47.857Z,0.10
2022-10-03T13:20:35.451Z,0.32
2022-10-03T13:23:28.230Z,0.85
2022-10-03T13:26:15.918Z,0.20
2022-10-03T13:28:58.326Z,0.47
2022-10-03T13:31:33.142Z,0.17
2022-10-03T13:34:11.902Z,0.30
2022-10-03T13:37:09.863Z,0.75
2022-10-03T13:39:56.038Z,0.20
2022-10-03T13:42:53.567Z,0.17
2022-10-03T13:45:27.414Z,0.20
2022-10-03T13:48:17.299Z,0.32
2022-10-03T13:50:52.366Z,0.45
2022-10-03T13:54:00.045Z,0.10
2022-10-03T13:57:02.303Z,0.20
2022-10-03T13:59:47.364Z,0.10
2022-10-03T14:02:42.202Z,0.25
2022-10-03T14:06:02.414Z,0.57
2022-10-03T14:08:40.263Z,0.10
2022-10-03T14:11:50.196Z,0.20
2022-10-03T14:15:06.858Z,0.00
2022-10-03T14:17:56.929Z,0.25
2022-10-03T14:20:53.371Z,0.30
2022-10-03T14:23:32.875Z,0.20
2022-10-03T14:26:32.824Z,0.20
2022-10-03T14:29:33.591Z,0.00
2022-10-03T14:32:46.935Z,0.20
2022-10-03T14:35:38.274Z,0.40
2022-10-03T14:38:58.771Z,0.30
2022-10-03T14:41:49.969Z,0.55
2022-10-03T14:44:21.321Z,0.30
2022-10-03T14:47:01.792Z,0.30
2022-10-03T14:49:54.839Z,0.30
2022-10-03T14:52:46.077Z,0.30
2022-10-03T14:55:29.018Z,0.40
2022-10-03T14:58:13.037Z,0.15
2022-10-03T15:00:48.824Z,0.10
2022-10-03T15:03:16.252Z,0.20
2022-10-03T15:06:21.947Z,0.38
2022-10-03T15:08:55.025Z,0.40
2022-10-03T15:11:33.370Z,0.35
2022-10-03T15:14:09.085Z,0.20
2022-10-03T15:16:56.308Z,0.10
2022-10-03T15:19:47.875Z,0.10
2022-10-03T15:22:36.936Z,0.08
2022-10-03T15:25:40.051Z,0.43
2022-10-03T15:28:20.164Z,0.20
2022-10-03T15:30:49.790Z,0.57
2022-10-03T15:33:32.448Z,0.00
2022-10-03T15:36:26.899Z,0.30
2022-10-03T15:39:03.067Z,0.50
2022-10-03T15:41:51.395Z,0.32
2022-10-03T15:47:19.945Z,0.20
2022-10-03T15:50:07.270Z,0.50
2022-10-03T15:52:40.256Z,0.17
2022-10-03T15:55:19.843Z,0.10
2022-10-03T16:00:32.142Z,0.10
2022-10-03T16:03:23.077Z,0.22
2022-10-03T16:06:36.017Z,0.20
2022-10-03T16:09:22.060Z,0.30
2022-10-03T16:12:16.733Z,0.00
2022-10-03T16:14:58.001Z,0.20
2022-10-03T16:17:56.629Z,0.40
2022-10-03T16:20:45.707Z,0.13
2022-10-03T16:23:29.229Z,0.10
2022-10-03T16:26:30.933Z,0.20
2022-10-03T16:29:15.006Z,0.32
2022-10-03T16:32:03.587Z,0.20
2022-10-03T16:34:34.350Z,0.25
2022-10-03T16:37:06.962Z,0.40
2022-10-03T16:39:38.638Z,0.40
2022-10-03T16:42:25.942Z,0.38
2022-10-03T16:44:58.156Z,0.10
2022-10-03T16:47:36.590Z,0.25
2022-10-03T16:50:24.931Z,0.25
2022-10-03T16:52:58.642Z,0.30
2022-10-03T16:55:36.357Z,0.47
2022-10-03T16:58:15.207Z,0.10
2022-10-03T17:01:26.252Z,0.00
2022-10-03T17:04:29.150Z,0.30
2022-10-03T17:07:02.220Z,0.15
2022-10-03T17:09:48.972Z,0.75
2022-10-03T17:12:30.276Z,0.90
2022-10-03T17:15:16.277Z,0.28
2022-10-03T17:18:25.497Z,0.10
2022-10-03T17:21:08.434Z,0.10
2022-10-03T17:24:00.519Z,0.30
2022-10-03T17:26:42.692Z,0.20
2022-10-03T17:29:33.539Z,0.20
2022-10-03T17:32:09.543Z,0.10
2022-10-03T17:34:48.034Z,0.10
2022-10-03T17:37:42.114Z,0.20
2022-10-03T17:40:23.254Z,0.22
2022-10-03T17:43:14.648Z,0.20
2022-10-03T17:45:50.468Z,0.20
2022-10-03T17:48:38.614Z,0.50
2022-10-03T17:51:36.952Z,0.30
2022-10-03T17:54:26.424Z,0.20
2022-10-03T17:57:13.965Z,0.20
2022-10-03T18:00:00.540Z,0.30
2022-10-03T18:02:56.811Z,0.40
2022-10-03T18:05:32.970Z,0.30
2022-10-03T18:08:14.557Z,0.20
2022-10-03T18:10:49.551Z,0.17
2022-10-03T18:13:43.948Z,0.10
2022-10-03T18:16:20.482Z,0.20
2022-10-03T18:19:39.192Z,0.47
2022-10-03T18:22:40.958Z,0.10
2022-10-03T18:29:31.539Z,0.10
2022-10-03T18:32:22.212Z,0.65
2022-10-03T18:35:21.080Z,0.00
2022-10-03T18:38:05.259Z,0.00
2022-10-03T18:41:01.474Z,0.10
2022-10-03T18:43:31.304Z,0.08
2022-10-03T18:46:15.272Z,0.05
2022-10-03T18:49:28.347Z,0.20
2022-10-03T18:52:00.564Z,0.20
2022-10-03T18:54:59.223Z,0.10
2022-10-03T18:57:57.472Z,0.57
2022-10-03T19:00:31.713Z,0.13
2022-10-03T19:03:13.516Z,0.28
2022-10-03T19:06:18.561Z,0.35
2022-10-03T19:09:02.312Z,0.57
2022-10-03T19:11:35.371Z,0.10
2022-10-03T19:14:16.346Z,0.10
2022-10-03T19:17:05.192Z,0.32
2022-10-03T19:20:11.404Z,0.17
2022-10-03T19:23:08.237Z,0.40
2022-10-03T19:25:38.718Z,0.60
2022-10-03T19:28:41.332Z,0.60
2022-10-03T19:31:12.227Z,0.40
2022-10-03T19:33:49.447Z,0.40
2022-10-03T19:36:28.133Z,0.73
2022-10-03T19:38:59.189Z,0.90
2022-10-03T19:41:46.872Z,0.98
2022-10-03T19:44:25.776Z,0.45
2022-10-03T19:47:16.116Z,0.35
2022-10-03T19:50:21.949Z,0.22
2022-10-03T19:52:50.166Z,0.10
2022-10-03T19:55:40.960Z,0.20
2022-10-03T19:58:23.814Z,0.10
2022-10-03T20:00:59.487Z,0.20
2022-10-03T20:03:38.526Z,0.30
2022-10-03T20:06:18.686Z,0.30
2022-10-03T20:08:59.421Z,0.40
2022-10-03T20:11:51.626Z,0.40
2022-10-03T20:14:29.100Z,0.50
2022-10-03T20:17:22.782Z,0.40
2022-10-03T20:20:04.468Z,0.47
2022-10-03T20:22:36.542Z,0.40
2022-10-03T20:25:08.497Z,0.60
2022-10-03T20:27:49.744Z,0.22
2022-10-03T20:30:35.951Z,0.32
2022-10-03T20:33:06.272Z,0.35
2022-10-03T20:36:19.156Z,0.28
2022-10-03T20:39:04.805Z,0.47
2022-10-03T20:42:16.090Z,0.52
2022-10-03T20:45:03.230Z,0.35
2022-10-03T20:48:10.359Z,0.85
2022-10-03T20:50:46.398Z,0.30
2022-10-03T20:53:23.243Z,0.40
2022-10-03T20:56:08.890Z,0.32
2022-10-03T20:59:05.732Z,0.50
2022-10-03T21:01:37.556Z,0.20
2022-10-03T21:04:07.902Z,0.40
2022-10-03T21:07:23.492Z,0.40
2022-10-03T21:10:28.751Z,0.30
2022-10-03T21:13:34.486Z,0.28
2022-10-03T21:16:16.383Z,0.43
2022-10-03T21:18:55.630Z,0.35
2022-10-03T21:21:42.160Z,0.32
2022-10-03T21:24:27.573Z,0.20
2022-10-03T21:27:22.591Z,0.10
2022-10-03T21:30:24.354Z,0.20
2022-10-03T21:33:11.495Z,0.10
2022-10-03T21:35:48.746Z,0.43
2022-10-03T21:38:47.052Z,0.40
2022-10-03T21:41:37.991Z,0.32
2022-10-03T21:44:16.998Z,0.30
2022-10-03T21:47:38.779Z,0.20
2022-10-03T21:50:27.457Z,0.20
2022-10-03T21:53:31.908Z,0.28
2022-10-03T21:56:37.537Z,2.20
2022-10-03T21:59:40.010Z,0.20
2022-10-03T22:03:07.262Z,0.28
2022-10-03T22:06:04.067Z,0.30
2022-10-03T22:08:37.309Z,0.38
2022-10-03T22:11:29.059Z,0.10
2022-10-03T22:14:47.221Z,0.20
2022-10-03T22:17:35.183Z,0.10
2022-10-03T22:20:23.417Z,0.57
2022-10-03T22:23:21.589Z,0.43
2022-10-03T22:26:06.869Z,0.20
2022-10-03T22:29:00.406Z,0.38
2022-10-03T22:31:51.399Z,0.17
2022-10-03T22:34:43.615Z,0.30
2022-10-03T22:37:14.769Z,0.20
2022-10-03T22:39:43.259Z,0.32
2022-10-03T22:42:15.197Z,0.28
2022-10-03T22:44:48.050Z,0.40
2022-10-03T22:47:24.824Z,0.20
2022-10-03T22:49:59.057Z,0.22
2022-10-03T22:52:37.665Z,0.10
2022-10-03T22:55:09.177Z,0.40
2022-10-03T22:57:39.319Z,0.25
2022-10-03T23:00:11.821Z,0.17
2022-10-03T23:02:59.301Z,0.50
2022-10-03T23:05:53.837Z,0.20
2022-10-03T23:08:40.237Z,0.15
2022-10-03T23:11:27.240Z,0.47
2022-10-03T23:14:01.353Z,0.17
2022-10-03T23:17:11.169Z,0.10
2022-10-03T23:20:14.606Z,0.55
2022-10-03T23:22:48.101Z,0.20
2022-10-03T23:25:34.251Z,0.13
2022-10-03T23:28:53.718Z,0.13
2022-10-03T23:31:49.332Z,1.20
2022-10-03T23:34:37.795Z,0.10
2022-10-03T23:39:54.852Z,0.20
2022-10-03T23:42:33.469Z,0.10
2022-10-03T23:45:07.479Z,0.10
2022-10-03T23:47:51.257Z,0.40
2022-10-03T23:50:55.930Z,0.20
2022-10-03T23:53:29.988Z,0.30
2022-10-03T23:56:02.151Z,0.30
2022-10-03T23:58:36.783Z,0.17
